Terminal Aerodrome Forecast
Issued by NWS

Home | Current Version | Previous Version | Graphics & Text | Print | Product List | Glossary On
Versions: 1 2 3 4 5 6 7 8 9 10 11 12 13
000
FTUS43 KGRB 191132
TAFAUW
TAF
KAUW 191132Z 1912/2012 00000KT P6SM SCT200
     FM191600 13003KT P6SM SCT200
     FM200900 12006KT 4SM BR BKN150 WS014/17030KT=

USA.gov is the U.S. government's official web portal to all federal, state and local government web resources and services.